createdAt,value
2019-03-04T00:01:14.957Z,3.30
2019-03-04T00:03:46.053Z,3.60
2019-03-04T00:06:16.635Z,3.70
2019-03-04T00:08:46.943Z,3.40
2019-03-04T00:11:17.253Z,3.73
2019-03-04T00:13:47.549Z,3.30
2019-03-04T00:16:17.813Z,3.37
2019-03-04T00:18:48.518Z,3.80
2019-03-04T00:21:18.810Z,3.53
2019-03-04T00:23:49.050Z,3.23
2019-03-04T00:26:19.446Z,3.07
2019-03-04T00:28:49.650Z,3.40
2019-03-04T00:31:20.150Z,2.83
2019-03-04T00:33:50.615Z,3.27
2019-03-04T00:36:20.804Z,3.20
2019-03-04T00:38:51.291Z,3.20
2019-03-04T00:41:21.844Z,3.07
2019-03-04T00:43:52.353Z,3.40
2019-03-04T00:46:22.616Z,2.93
2019-03-04T00:48:53.123Z,3.43
2019-03-04T00:51:23.522Z,3.27
2019-03-04T00:53:53.985Z,2.57
2019-03-04T00:56:24.197Z,3.10
2019-03-04T00:58:54.449Z,2.83
2019-03-04T01:01:24.822Z,2.90
2019-03-04T01:03:55.108Z,2.77
2019-03-04T01:06:25.369Z,2.43
2019-03-04T01:08:55.869Z,2.97
2019-03-04T01:11:26.148Z,2.77
2019-03-04T01:13:56.657Z,2.53
2019-03-04T01:16:27.232Z,2.90
2019-03-04T01:18:58.052Z,2.63
2019-03-04T01:21:28.265Z,3.10
2019-03-04T01:23:59.020Z,2.40
2019-03-04T01:26:29.606Z,2.50
2019-03-04T01:29:00.519Z,2.30
2019-03-04T01:31:30.924Z,2.70
2019-03-04T01:34:01.245Z,2.37
2019-03-04T01:36:31.467Z,2.57
2019-03-04T01:39:02.027Z,2.50
2019-03-04T01:41:32.327Z,2.57
2019-03-04T01:44:02.573Z,2.27
2019-03-04T01:46:32.757Z,2.03
2019-03-04T01:49:03.338Z,2.37
2019-03-04T01:51:34.111Z,2.30
2019-03-04T01:54:04.424Z,2.23
2019-03-04T01:56:34.967Z,2.40
2019-03-04T01:59:06.229Z,2.40
2019-03-04T02:01:36.669Z,2.23
2019-03-04T02:04:07.210Z,2.27
2019-03-04T02:06:37.459Z,2.17
2019-03-04T02:09:08.807Z,2.40
2019-03-04T02:11:39.345Z,2.50
2019-03-04T02:14:10.002Z,2.33
2019-03-04T02:16:40.406Z,2.50
2019-03-04T02:19:11.014Z,2.50
2019-03-04T02:21:41.254Z,2.37
2019-03-04T02:24:26.281Z,2.30
2019-03-04T02:26:59.199Z,2.30
2019-03-04T02:29:29.489Z,2.43
2019-03-04T02:31:59.970Z,2.43
2019-03-04T02:34:30.910Z,2.43
2019-03-04T02:37:01.163Z,2.43
2019-03-04T02:39:31.642Z,2.07
2019-03-04T02:42:01.996Z,2.40
2019-03-04T02:44:32.312Z,2.10
2019-03-04T02:47:02.694Z,2.07
2019-03-04T02:49:32.961Z,2.00
2019-03-04T02:52:03.535Z,2.00
2019-03-04T02:54:33.983Z,2.27
2019-03-04T02:57:04.439Z,2.27
2019-03-04T02:59:34.678Z,2.27
2019-03-04T03:02:06.489Z,2.03
2019-03-04T03:04:36.858Z,2.10
2019-03-04T03:07:07.565Z,1.90
2019-03-04T03:09:37.883Z,2.10
2019-03-04T03:12:08.342Z,2.10
2019-03-04T03:14:38.507Z,2.40
2019-03-04T03:17:09.089Z,2.63
2019-03-04T03:19:39.518Z,2.20
2019-03-04T03:22:09.776Z,2.00
2019-03-04T03:24:40.543Z,2.00
2019-03-04T03:27:11.044Z,2.10
2019-03-04T03:29:44.843Z,1.97
2019-03-04T03:32:15.427Z,1.87
2019-03-04T03:34:45.742Z,1.80
2019-03-04T03:37:16.071Z,1.30
2019-03-04T03:39:46.345Z,2.17
2019-03-04T03:42:19.003Z,1.90
2019-03-04T03:44:48.717Z,1.70
2019-03-04T03:47:19.012Z,1.60
2019-03-04T03:49:49.313Z,1.40
2019-03-04T03:52:19.554Z,1.90
2019-03-04T03:54:49.982Z,1.63
2019-03-04T03:57:20.291Z,1.60
2019-03-04T03:59:50.587Z,1.57
2019-03-04T04:02:21.168Z,1.37
2019-03-04T04:04:57.609Z,1.40
2019-03-04T04:07:27.930Z,1.40
2019-03-04T04:09:58.313Z,1.40
2019-03-04T04:12:29.356Z,1.27
2019-03-04T04:14:59.542Z,1.20
2019-03-04T04:17:29.839Z,1.10
2019-03-04T04:20:00.451Z,1.13
2019-03-04T04:22:31.035Z,1.00
2019-03-04T04:25:01.435Z,1.20
2019-03-04T04:27:31.952Z,1.17
2019-03-04T04:30:02.416Z,1.23
2019-03-04T04:32:32.741Z,1.20
2019-03-04T04:35:03.030Z,1.20
2019-03-04T04:37:33.579Z,1.10
2019-03-04T04:40:03.871Z,1.10
2019-03-04T04:42:34.198Z,0.87
2019-03-04T04:45:04.679Z,1.00
2019-03-04T04:47:35.407Z,1.00
2019-03-04T04:50:07.141Z,1.10
2019-03-04T04:52:37.715Z,1.00
2019-03-04T04:55:08.122Z,1.07
2019-03-04T04:57:38.299Z,0.97
2019-03-04T05:00:12.732Z,1.00
2019-03-04T05:02:43.269Z,1.30
2019-03-04T05:05:14.263Z,0.90
2019-03-04T05:07:44.791Z,1.03
2019-03-04T05:10:17.509Z,1.00
2019-03-04T05:12:48.768Z,0.83
2019-03-04T05:15:19.443Z,1.10
2019-03-04T05:17:51.795Z,1.10
2019-03-04T05:20:22.722Z,0.90
2019-03-04T05:22:52.999Z,1.10
2019-03-04T05:25:26.308Z,0.90
2019-03-04T05:27:56.422Z,1.10
2019-03-04T05:30:26.867Z,1.10
2019-03-04T05:33:00.183Z,1.17
2019-03-04T05:35:30.372Z,1.10
2019-03-04T05:38:00.592Z,1.20
2019-03-04T05:40:30.888Z,1.13
2019-03-04T05:43:01.125Z,1.30
2019-03-04T05:45:31.423Z,1.20
2019-03-04T05:48:01.674Z,1.10
2019-03-04T05:50:32.005Z,1.10
2019-03-04T05:53:02.486Z,1.23
2019-03-04T05:55:32.777Z,0.90
2019-03-04T05:58:03.333Z,1.00
2019-03-04T06:00:38.576Z,1.30
2019-03-04T06:03:09.468Z,1.20
2019-03-04T06:05:39.742Z,1.23
2019-03-04T06:08:10.387Z,1.13
2019-03-04T06:10:40.799Z,1.47
2019-03-04T06:13:11.059Z,0.97
2019-03-04T06:15:41.687Z,0.90
2019-03-04T06:18:11.962Z,1.00
2019-03-04T06:20:42.612Z,1.13
2019-03-04T06:23:13.501Z,1.10
2019-03-04T06:25:50.062Z,1.03
2019-03-04T06:28:20.476Z,1.00
2019-03-04T06:30:50.840Z,1.00
2019-03-04T06:33:21.146Z,1.20
2019-03-04T06:35:51.423Z,1.10
2019-03-04T06:38:21.994Z,1.17
2019-03-04T06:40:52.508Z,1.13
2019-03-04T06:43:24.169Z,1.00
2019-03-04T06:45:54.625Z,0.93
2019-03-04T06:48:25.275Z,1.03
2019-03-04T06:50:56.733Z,1.40
2019-03-04T06:54:08.402Z,0.80
2019-03-04T06:56:50.881Z,0.60
2019-03-04T06:59:42.196Z,0.57
2019-03-04T07:02:14.358Z,0.50
2019-03-04T07:05:19.737Z,0.60
2019-03-04T07:07:50.128Z,0.60
2019-03-04T07:10:20.612Z,0.40
2019-03-04T07:12:50.986Z,0.60
2019-03-04T07:15:21.338Z,0.57
2019-03-04T07:17:51.772Z,0.40
2019-03-04T07:20:22.268Z,0.43
2019-03-04T07:22:53.738Z,0.30
2019-03-04T07:25:24.145Z,0.50
2019-03-04T07:27:55.598Z,0.30
2019-03-04T07:30:26.447Z,0.30
2019-03-04T07:32:56.566Z,0.40
2019-03-04T07:35:27.009Z,0.40
2019-03-04T07:38:46.931Z,0.30
2019-03-04T07:41:17.524Z,0.17
2019-03-04T07:43:47.811Z,0.40
2019-03-04T07:46:20.222Z,0.37
2019-03-04T07:48:53.125Z,0.30
2019-03-04T07:51:24.218Z,0.50
2019-03-04T07:53:54.513Z,0.40
2019-03-04T07:56:25.473Z,0.30
2019-03-04T07:58:55.753Z,0.30
2019-03-04T08:01:26.567Z,0.60
2019-03-04T08:03:56.726Z,0.40
2019-03-04T08:06:27.680Z,0.60
2019-03-04T08:10:00.968Z,0.50
2019-03-04T08:13:20.268Z,0.50
2019-03-04T08:15:54.433Z,0.40
2019-03-04T08:18:25.091Z,0.60
2019-03-04T08:20:55.414Z,0.50
2019-03-04T08:23:26.052Z,0.70
2019-03-04T08:25:58.148Z,0.80
2019-03-04T08:28:29.362Z,0.60
2019-03-04T08:30:59.902Z,0.57
2019-03-04T08:33:30.315Z,0.40
2019-03-04T08:36:00.666Z,0.50
2019-03-04T08:38:36.369Z,0.33
2019-03-04T08:41:06.753Z,0.40
2019-03-04T08:43:38.111Z,0.30
2019-03-04T08:46:08.363Z,0.53
2019-03-04T08:48:38.679Z,1.57
2019-03-04T08:51:09.480Z,0.53
2019-03-04T08:53:39.997Z,0.40
2019-03-04T08:56:12.311Z,0.40
2019-03-04T08:58:42.340Z,0.40
2019-03-04T09:01:12.740Z,0.30
2019-03-04T09:03:43.710Z,0.40
2019-03-04T09:06:15.681Z,0.57
2019-03-04T09:08:46.033Z,0.60
2019-03-04T09:11:16.758Z,0.50
2019-03-04T09:13:47.143Z,0.50
2019-03-04T09:16:17.862Z,0.80
2019-03-04T09:18:48.243Z,0.80
2019-03-04T09:21:18.580Z,0.80
2019-03-04T09:23:50.042Z,0.70
2019-03-04T09:26:21.077Z,1.10
2019-03-04T09:28:52.157Z,0.90
2019-03-04T09:31:22.506Z,0.90
2019-03-04T09:33:52.859Z,0.37
2019-03-04T09:36:23.581Z,0.60
2019-03-04T09:39:01.771Z,0.70
2019-03-04T09:41:32.113Z,0.80
2019-03-04T09:44:02.405Z,1.20
2019-03-04T09:46:32.715Z,0.90
2019-03-04T09:49:03.093Z,1.00
2019-03-04T09:51:33.657Z,1.23
2019-03-04T09:54:03.979Z,1.00
2019-03-04T09:56:36.675Z,0.90
2019-03-04T09:59:06.989Z,1.10
2019-03-04T10:02:02.838Z,1.03
2019-03-04T10:05:42.140Z,1.40
2019-03-04T10:08:43.795Z,1.13
2019-03-04T10:11:55.288Z,1.53
2019-03-04T10:15:41.300Z,1.37
2019-03-04T10:19:14.481Z,1.60
2019-03-04T10:21:59.986Z,1.47
2019-03-04T10:25:11.660Z,1.40
2019-03-04T10:28:20.804Z,2.33
2019-03-04T10:31:54.155Z,1.53
2019-03-04T10:35:21.769Z,1.50
2019-03-04T10:38:54.801Z,1.70
2019-03-04T10:42:36.404Z,1.13
2019-03-04T10:46:00.169Z,1.83
2019-03-04T10:48:33.245Z,1.30
2019-03-04T10:51:03.573Z,1.20
2019-03-04T10:53:34.236Z,1.07
2019-03-04T10:56:04.556Z,1.00
2019-03-04T10:58:34.878Z,0.83
2019-03-04T11:01:06.645Z,1.07
2019-03-04T11:03:36.889Z,1.03
2019-03-04T11:06:07.159Z,1.13
2019-03-04T11:08:38.917Z,0.97
2019-03-04T11:11:09.188Z,0.90
2019-03-04T11:13:39.497Z,0.73
2019-03-04T11:16:09.805Z,0.70
2019-03-04T11:18:39.983Z,0.53
2019-03-04T11:21:10.352Z,0.60
2019-03-04T11:23:41.264Z,0.30
2019-03-04T11:26:11.879Z,0.50
2019-03-04T11:28:42.143Z,0.37
2019-03-04T11:31:13.480Z,0.40
2019-03-04T11:33:43.779Z,0.70
2019-03-04T11:36:14.169Z,0.50
2019-03-04T11:38:47.962Z,0.60
2019-03-04T11:41:21.498Z,0.30
2019-03-04T11:43:51.963Z,0.47
2019-03-04T11:46:24.197Z,0.50
2019-03-04T11:48:54.811Z,0.60
2019-03-04T11:51:26.019Z,0.60
2019-03-04T11:53:56.339Z,0.80
2019-03-04T11:56:26.705Z,0.60
2019-03-04T11:58:57.129Z,0.57
2019-03-04T12:01:37.124Z,0.73
2019-03-04T12:04:07.687Z,0.50
2019-03-04T12:06:39.229Z,0.90
2019-03-04T12:09:17.608Z,0.60
2019-03-04T12:11:57.649Z,0.70
2019-03-04T12:14:32.957Z,1.00
2019-03-04T12:17:03.868Z,0.70
2019-03-04T12:19:43.640Z,0.70
2019-03-04T12:22:17.597Z,0.80
2019-03-04T12:24:53.634Z,0.80
2019-03-04T12:27:24.182Z,1.00
2019-03-04T12:29:54.568Z,0.70
2019-03-04T12:32:30.915Z,0.97
2019-03-04T12:35:03.567Z,0.70
2019-03-04T12:37:33.881Z,0.80
2019-03-04T12:40:06.167Z,0.87
2019-03-04T12:42:36.523Z,0.80
2019-03-04T12:45:10.921Z,0.97
2019-03-04T12:47:41.936Z,0.80
2019-03-04T12:50:17.937Z,1.10
2019-03-04T12:52:48.296Z,1.00
2019-03-04T12:55:20.363Z,1.03
2019-03-04T12:57:51.567Z,1.13
2019-03-04T13:00:24.478Z,1.40
2019-03-04T13:02:57.959Z,1.33
2019-03-04T13:05:27.170Z,1.87
2019-03-04T13:07:57.746Z,1.10
2019-03-04T13:10:28.044Z,1.00
2019-03-04T13:12:59.713Z,1.10
2019-03-04T13:15:31.295Z,1.30
2019-03-04T13:18:01.557Z,1.50
2019-03-04T13:20:32.114Z,1.57
2019-03-04T13:23:02.283Z,1.37
2019-03-04T13:25:32.953Z,1.23
2019-03-04T13:28:08.233Z,1.37
2019-03-04T13:30:35.877Z,1.53
2019-03-04T13:33:06.755Z,1.30
2019-03-04T13:35:37.431Z,1.30
2019-03-04T13:38:07.904Z,1.47
2019-03-04T13:40:38.409Z,1.33
2019-03-04T13:43:08.775Z,1.17
2019-03-04T13:45:39.345Z,1.30
2019-03-04T13:48:09.586Z,1.63
2019-03-04T13:50:41.869Z,1.67
2019-03-04T13:53:12.394Z,1.50
2019-03-04T13:55:42.946Z,1.60
2019-03-04T13:58:13.293Z,1.60
2019-03-04T14:00:45.393Z,1.57
2019-03-04T14:03:15.728Z,1.67
2019-03-04T14:05:46.363Z,1.60
2019-03-04T14:08:19.491Z,1.67
2019-03-04T14:10:51.141Z,1.50
2019-03-04T14:13:21.706Z,1.63
2019-03-04T14:15:52.279Z,1.60
2019-03-04T14:18:22.872Z,1.33
2019-03-04T14:20:53.143Z,1.80
2019-03-04T14:23:23.457Z,1.70
2019-03-04T14:25:55.014Z,1.83
2019-03-04T14:28:25.542Z,1.80
2019-03-04T14:30:56.509Z,2.00
2019-03-04T14:33:30.299Z,1.80
2019-03-04T14:36:00.608Z,1.63
2019-03-04T14:38:30.915Z,1.50
2019-03-04T14:41:01.520Z,1.87
2019-03-04T14:43:32.758Z,2.10
2019-03-04T14:46:03.465Z,2.27
2019-03-04T14:48:33.938Z,2.00
2019-03-04T14:51:04.680Z,1.90
2019-03-04T14:53:52.210Z,2.50
2019-03-04T14:56:23.318Z,1.87
2019-03-04T14:59:09.794Z,2.20
2019-03-04T15:01:26.297Z,1.90
2019-03-04T15:03:56.571Z,2.40
2019-03-04T15:06:26.971Z,2.30
2019-03-04T15:08:57.829Z,1.80
2019-03-04T15:11:28.478Z,2.23
2019-03-04T15:13:58.945Z,1.70
2019-03-04T15:16:31.151Z,2.47
2019-03-04T15:19:01.483Z,2.10
2019-03-04T15:21:33.217Z,1.60
2019-03-04T15:24:03.740Z,1.80
2019-03-04T15:26:41.771Z,1.97
2019-03-04T15:29:07.286Z,2.07
2019-03-04T15:31:37.632Z,2.57
2019-03-04T15:34:08.124Z,2.00
2019-03-04T15:36:38.689Z,2.40
2019-03-04T15:39:22.965Z,1.97
2019-03-04T15:41:50.253Z,2.07
2019-03-04T15:44:20.726Z,1.90
2019-03-04T15:46:51.542Z,1.90
2019-03-04T15:49:22.063Z,1.93
2019-03-04T15:51:52.719Z,2.10
2019-03-04T15:54:23.000Z,2.30
2019-03-04T15:56:53.289Z,1.90
2019-03-04T15:59:23.997Z,1.70
2019-03-04T16:02:07.609Z,2.23
2019-03-04T16:04:37.916Z,2.00
2019-03-04T16:07:09.608Z,1.90
2019-03-04T16:09:40.808Z,2.47
2019-03-04T16:12:14.479Z,2.00
2019-03-04T16:14:44.971Z,2.00
2019-03-04T16:17:15.926Z,1.80
2019-03-04T16:19:46.127Z,1.97
2019-03-04T16:22:17.377Z,2.43
2019-03-04T16:24:49.227Z,2.57
2019-03-04T16:27:19.565Z,2.10
2019-03-04T16:29:50.190Z,2.30
2019-03-04T16:32:20.716Z,1.60
2019-03-04T16:34:50.994Z,1.90
2019-03-04T16:37:21.954Z,2.17
2019-03-04T16:39:52.967Z,2.20
2019-03-04T16:42:23.842Z,2.37
2019-03-04T16:44:57.528Z,1.60
2019-03-04T16:47:27.837Z,2.00
2019-03-04T16:49:58.530Z,2.13
2019-03-04T16:52:31.530Z,1.97
2019-03-04T16:55:02.512Z,1.70
2019-03-04T16:57:33.043Z,1.93
2019-03-04T17:00:03.446Z,2.70
2019-03-04T17:02:34.143Z,1.70
2019-03-04T17:05:05.251Z,2.03
2019-03-04T17:07:35.553Z,1.67
2019-03-04T17:10:06.950Z,1.60
2019-03-04T17:12:37.258Z,1.83
2019-03-04T17:15:09.040Z,1.70
2019-03-04T17:17:39.329Z,1.50
2019-03-04T17:20:11.511Z,2.10
2019-03-04T17:22:46.507Z,1.47
2019-03-04T17:25:17.520Z,2.00
2019-03-04T17:27:48.212Z,1.97
2019-03-04T17:30:19.570Z,2.17
2019-03-04T17:32:49.883Z,2.00
2019-03-04T17:35:20.206Z,2.13
2019-03-04T17:37:50.478Z,2.10
2019-03-04T17:40:21.023Z,1.83
2019-03-04T17:42:51.283Z,1.77
2019-03-04T17:45:21.625Z,2.00
2019-03-04T17:47:51.961Z,2.00
2019-03-04T17:50:33.080Z,1.53
2019-03-04T17:53:04.495Z,1.70
2019-03-04T17:55:34.940Z,2.07
2019-03-04T17:58:05.559Z,1.53
2019-03-04T18:00:38.728Z,1.83
2019-03-04T18:03:09.946Z,1.70
2019-03-04T18:05:40.539Z,1.77
2019-03-04T18:08:11.904Z,2.23
2019-03-04T18:10:42.472Z,2.07
2019-03-04T18:13:13.488Z,1.90
2019-03-04T18:15:43.764Z,2.03
2019-03-04T18:18:14.385Z,1.90
2019-03-04T18:20:44.726Z,2.43
2019-03-04T18:23:15.134Z,1.90
2019-03-04T18:25:56.443Z,1.97
2019-03-04T18:29:19.166Z,1.87
2019-03-04T18:32:51.458Z,2.17
2019-03-04T18:36:27.981Z,2.20
2019-03-04T18:39:40.950Z,2.03
2019-03-04T18:43:06.385Z,2.30
2019-03-04T18:46:26.213Z,1.83
2019-03-04T18:49:01.769Z,2.33
2019-03-04T18:51:34.119Z,2.33
2019-03-04T18:54:14.626Z,2.50
2019-03-04T18:56:45.207Z,2.00
2019-03-04T18:59:16.229Z,2.13
2019-03-04T19:01:50.790Z,1.97
2019-03-04T19:04:21.101Z,1.90
2019-03-04T19:06:51.443Z,2.00
2019-03-04T19:09:21.744Z,2.40
2019-03-04T19:11:52.632Z,2.70
2019-03-04T19:14:22.782Z,2.23
2019-03-04T19:16:55.499Z,2.30
2019-03-04T19:19:25.856Z,2.27
2019-03-04T19:21:56.486Z,2.23
2019-03-04T19:24:27.171Z,2.17
2019-03-04T19:26:57.581Z,2.17
2019-03-04T19:29:36.437Z,1.90
2019-03-04T19:32:06.867Z,2.47
2019-03-04T19:34:37.230Z,1.93
2019-03-04T19:37:10.903Z,2.60
2019-03-04T19:39:41.243Z,2.33
2019-03-04T19:42:11.586Z,2.17
2019-03-04T19:44:42.218Z,2.10
2019-03-04T19:47:12.538Z,1.70
2019-03-04T19:49:42.927Z,1.80
2019-03-04T19:52:13.140Z,2.17
2019-03-04T19:54:44.498Z,2.10
2019-03-04T19:57:24.338Z,1.83
2019-03-04T19:59:55.158Z,1.87
2019-03-04T20:02:26.746Z,2.00
2019-03-04T20:04:57.099Z,2.20
2019-03-04T20:07:27.392Z,1.73
2019-03-04T20:09:58.717Z,1.90
2019-03-04T20:12:28.987Z,2.07
2019-03-04T20:14:59.598Z,1.90
2019-03-04T20:17:29.873Z,1.83
2019-03-04T20:20:00.328Z,1.23
2019-03-04T20:22:30.721Z,1.60
2019-03-04T20:25:01.011Z,1.57
2019-03-04T20:27:31.241Z,1.70
2019-03-04T20:30:01.541Z,1.70
2019-03-04T20:32:31.912Z,1.83
2019-03-04T20:35:02.405Z,2.00
2019-03-04T20:37:33.730Z,2.00
2019-03-04T20:40:04.140Z,1.80
2019-03-04T20:42:34.718Z,2.10
2019-03-04T20:45:06.119Z,2.00
2019-03-04T20:47:36.523Z,1.90
2019-03-04T20:50:10.096Z,1.70
2019-03-04T20:52:40.622Z,1.77
2019-03-04T20:55:11.126Z,2.07
2019-03-04T20:57:52.040Z,1.70
2019-03-04T21:00:34.099Z,2.20
2019-03-04T21:03:05.406Z,2.27
2019-03-04T21:05:37.593Z,1.97
2019-03-04T21:08:08.434Z,1.80
2019-03-04T21:10:38.768Z,2.10
2019-03-04T21:13:15.125Z,1.90
2019-03-04T21:15:45.724Z,1.83
2019-03-04T21:18:16.076Z,1.90
2019-03-04T21:20:52.410Z,1.90
2019-03-04T21:23:22.800Z,2.10
2019-03-04T21:26:07.666Z,1.60
2019-03-04T21:29:30.293Z,1.70
2019-03-04T21:32:52.848Z,1.90
2019-03-04T21:36:15.877Z,2.40
2019-03-04T21:38:45.792Z,1.83
2019-03-04T21:41:48.062Z,1.83
2019-03-04T21:44:59.929Z,1.70
2019-03-04T21:47:35.487Z,2.10
2019-03-04T21:50:08.347Z,1.73
2019-03-04T21:53:09.385Z,1.70
2019-03-04T21:56:06.004Z,1.87
2019-03-04T21:58:36.356Z,2.00
2019-03-04T22:01:24.521Z,1.80
2019-03-04T22:03:55.346Z,3.17
2019-03-04T22:06:25.771Z,2.03
2019-03-04T22:08:56.129Z,1.90
2019-03-04T22:11:26.808Z,2.03
2019-03-04T22:14:03.938Z,2.10
2019-03-04T22:16:34.413Z,1.67
2019-03-04T22:19:04.708Z,1.67
2019-03-04T22:21:35.059Z,1.67
2019-03-04T22:24:05.346Z,1.80
2019-03-04T22:26:36.435Z,2.10
2019-03-04T22:29:06.733Z,1.90
2019-03-04T22:31:37.141Z,2.50
2019-03-04T22:34:08.122Z,2.30
2019-03-04T22:36:38.510Z,2.87
2019-03-04T22:39:09.390Z,3.17
2019-03-04T22:41:40.041Z,3.00
2019-03-04T22:44:12.420Z,2.80
2019-03-04T22:46:42.972Z,3.07
2019-03-04T22:49:13.347Z,3.30
2019-03-04T22:51:43.658Z,3.63
2019-03-04T22:54:15.176Z,3.70
2019-03-04T22:56:45.480Z,4.17
2019-03-04T22:59:15.777Z,3.80
2019-03-04T23:02:06.701Z,3.37
2019-03-04T23:05:06.985Z,3.33
2019-03-04T23:07:51.325Z,3.90
2019-03-04T23:10:45.591Z,3.77
2019-03-04T23:13:56.920Z,3.60
2019-03-04T23:16:30.946Z,3.70
2019-03-04T23:19:01.947Z,3.60
2019-03-04T23:21:32.725Z,3.80
2019-03-04T23:24:03.127Z,3.87
2019-03-04T23:26:34.545Z,3.47
2019-03-04T23:29:05.040Z,3.03
2019-03-04T23:31:36.503Z,2.60
2019-03-04T23:34:06.823Z,2.70
2019-03-04T23:36:37.730Z,3.23
2019-03-04T23:39:09.326Z,4.37
2019-03-04T23:41:39.842Z,5.13
2019-03-04T23:44:10.472Z,5.03
2019-03-04T23:46:40.957Z,5.07
2019-03-04T23:49:11.216Z,4.83
2019-03-04T23:51:41.496Z,5.63
2019-03-04T23:54:12.904Z,5.47
2019-03-04T23:56:43.766Z,6.30
2019-03-04T23:59:14.586Z,5.33
